sensor_id;sensor_type;location;lat;lon;timestamp;P1;durP1;ratioP1;P2;durP2;ratioP2
1010;SDS011;494;48.744;10.106;2023-09-19T00:30:34;806.40;;;751.97;;
1010;SDS011;494;48.744;10.106;2023-09-19T00:33:52;838.43;;;780.97;;
1010;SDS011;494;48.744;10.106;2023-09-19T00:37:13;868.90;;;807.97;;
1010;SDS011;494;48.744;10.106;2023-09-19T00:40:04;879.87;;;816.57;;
1010;SDS011;494;48.744;10.106;2023-09-19T00:45:55;933.57;;;864.93;;
1010;SDS011;494;48.744;10.106;2023-09-19T00:48:56;957.53;;;886.57;;
1010;SDS011;494;48.744;10.106;2023-09-19T00:52:00;973.83;;;900.23;;
1010;SDS011;494;48.744;10.106;2023-09-19T00:55:51;999.87;;;922.03;;
1010;SDS011;494;48.744;10.106;2023-09-19T01:52:47;1119.67;;;999.90;;
1010;SDS011;494;48.744;10.106;2023-09-19T01:55:43;1128.90;;;999.90;;
1010;SDS011;494;48.744;10.106;2023-09-19T01:58:21;1136.47;;;999.90;;
1010;SDS011;494;48.744;10.106;2023-09-19T02:01:07;1142.63;;;999.90;;
1010;SDS011;494;48.744;10.106;2023-09-19T02:04:36;1159.60;;;999.90;;
1010;SDS011;494;48.744;10.106;2023-09-19T03:04:49;1159.33;;;999.90;;
1010;SDS011;494;48.744;10.106;2023-09-19T03:07:33;1160.57;;;999.90;;
1010;SDS011;494;48.744;10.106;2023-09-19T03:10:32;1154.37;;;999.90;;
1010;SDS011;494;48.744;10.106;2023-09-19T03:13:44;1162.77;;;999.90;;
1010;SDS011;494;48.744;10.106;2023-09-19T03:16:33;1157.60;;;999.90;;
1010;SDS011;494;48.744;10.106;2023-09-19T03:19:23;1164.43;;;999.90;;
1010;SDS011;494;48.744;10.106;2023-09-19T03:26:24;1163.97;;;999.90;;
1010;SDS011;494;48.744;10.106;2023-09-19T03:29:23;1155.10;;;999.90;;
1010;SDS011;494;48.744;10.106;2023-09-19T03:32:22;1163.50;;;999.90;;
1010;SDS011;494;48.744;10.106;2023-09-19T03:39:09;1155.47;;;999.90;;
1010;SDS011;494;48.744;10.106;2023-09-19T03:42:20;1159.00;;;999.90;;
1010;SDS011;494;48.744;10.106;2023-09-19T03:45:25;1156.83;;;999.90;;
1010;SDS011;494;48.744;10.106;2023-09-19T03:48:28;1156.50;;;999.90;;
1010;SDS011;494;48.744;10.106;2023-09-19T03:51:05;1168.70;;;999.90;;
1010;SDS011;494;48.744;10.106;2023-09-19T03:53:52;1163.90;;;999.90;;
1010;SDS011;494;48.744;10.106;2023-09-19T03:56:50;1160.20;;;999.90;;
1010;SDS011;494;48.744;10.106;2023-09-19T04:03:25;1156.90;;;999.90;;
1010;SDS011;494;48.744;10.106;2023-09-19T04:06:31;1149.70;;;999.90;;
1010;SDS011;494;48.744;10.106;2023-09-19T04:10:09;1149.37;;;999.90;;
1010;SDS011;494;48.744;10.106;2023-09-19T04:13:26;1146.20;;;999.90;;
1010;SDS011;494;48.744;10.106;2023-09-19T04:23:53;1136.43;;;999.90;;
1010;SDS011;494;48.744;10.106;2023-09-19T04:26:45;1141.77;;;999.90;;
1010;SDS011;494;48.744;10.106;2023-09-19T04:30:03;1135.13;;;999.90;;
1010;SDS011;494;48.744;10.106;2023-09-19T04:33:43;1119.20;;;999.90;;
1010;SDS011;494;48.744;10.106;2023-09-19T04:36:54;1113.07;;;999.90;;
1010;SDS011;494;48.744;10.106;2023-09-19T04:47:13;1090.80;;;997.43;;
1010;SDS011;494;48.744;10.106;2023-09-19T04:50:15;1067.73;;;977.43;;
1010;SDS011;494;48.744;10.106;2023-09-19T04:53:07;1062.67;;;973.07;;
1010;SDS011;494;48.744;10.106;2023-09-19T04:55:53;1060.93;;;972.43;;
1010;SDS011;494;48.744;10.106;2023-09-19T04:58:55;1055.67;;;968.67;;
1010;SDS011;494;48.744;10.106;2023-09-19T05:02:17;1042.80;;;957.03;;
1010;SDS011;494;48.744;10.106;2023-09-19T05:05:08;1036.50;;;951.50;;
1010;SDS011;494;48.744;10.106;2023-09-19T05:08:21;1056.70;;;969.97;;
1010;SDS011;494;48.744;10.106;2023-09-19T05:10:54;1057.17;;;969.17;;
1010;SDS011;494;48.744;10.106;2023-09-19T05:13:41;1039.70;;;953.43;;
1010;SDS011;494;48.744;10.106;2023-09-19T05:16:13;1026.93;;;942.73;;
1010;SDS011;494;48.744;10.106;2023-09-19T05:21:31;1009.60;;;928.03;;
1010;SDS011;494;48.744;10.106;2023-09-19T05:24:02;977.47;;;899.60;;
1010;SDS011;494;48.744;10.106;2023-09-19T05:26:37;966.93;;;891.67;;
1010;SDS011;494;48.744;10.106;2023-09-19T05:29:07;975.10;;;898.83;;
1010;SDS011;494;48.744;10.106;2023-09-19T05:31:40;973.73;;;897.97;;
1010;SDS011;494;48.744;10.106;2023-09-19T05:34:15;950.83;;;877.60;;
1010;SDS011;494;48.744;10.106;2023-09-19T05:36:47;945.73;;;873.07;;
1010;SDS011;494;48.744;10.106;2023-09-19T05:39:17;920.47;;;851.50;;
1010;SDS011;494;48.744;10.106;2023-09-19T05:42:19;908.47;;;840.43;;
1010;SDS011;494;48.744;10.106;2023-09-19T05:45:16;900.93;;;833.60;;
1010;SDS011;494;48.744;10.106;2023-09-19T05:47:53;891.20;;;825.83;;
1010;SDS011;494;48.744;10.106;2023-09-19T05:50:40;868.67;;;806.00;;
1010;SDS011;494;48.744;10.106;2023-09-19T05:53:26;831.20;;;772.53;;
1010;SDS011;494;48.744;10.106;2023-09-19T05:55:56;806.93;;;751.57;;
1010;SDS011;494;48.744;10.106;2023-09-19T05:58:43;737.57;;;687.97;;
1010;SDS011;494;48.744;10.106;2023-09-19T06:01:16;645.47;;;603.13;;
1010;SDS011;494;48.744;10.106;2023-09-19T06:03:48;611.83;;;572.83;;
1010;SDS011;494;48.744;10.106;2023-09-19T06:06:35;497.37;;;466.57;;
1010;SDS011;494;48.744;10.106;2023-09-19T06:09:09;424.47;;;398.10;;
1010;SDS011;494;48.744;10.106;2023-09-19T06:11:41;395.70;;;371.13;;
1010;SDS011;494;48.744;10.106;2023-09-19T06:14:10;310.43;;;289.97;;
1010;SDS011;494;48.744;10.106;2023-09-19T06:16:39;216.93;;;200.97;;
1010;SDS011;494;48.744;10.106;2023-09-19T06:19:09;96.53;;;86.70;;
1010;SDS011;494;48.744;10.106;2023-09-19T06:21:49;86.97;;;77.03;;
1010;SDS011;494;48.744;10.106;2023-09-19T06:24:20;82.77;;;70.63;;
1010;SDS011;494;48.744;10.106;2023-09-19T06:26:53;81.63;;;69.60;;
1010;SDS011;494;48.744;10.106;2023-09-19T06:29:22;74.07;;;47.87;;
1010;SDS011;494;48.744;10.106;2023-09-19T06:31:51;71.17;;;41.10;;
1010;SDS011;494;48.744;10.106;2023-09-19T06:34:21;72.77;;;49.80;;
1010;SDS011;494;48.744;10.106;2023-09-19T06:36:53;71.20;;;40.73;;
1010;SDS011;494;48.744;10.106;2023-09-19T06:39:22;70.90;;;41.60;;
1010;SDS011;494;48.744;10.106;2023-09-19T06:41:57;78.73;;;50.50;;
1010;SDS011;494;48.744;10.106;2023-09-19T06:44:28;69.73;;;41.10;;
1010;SDS011;494;48.744;10.106;2023-09-19T06:46:59;71.30;;;47.07;;
1010;SDS011;494;48.744;10.106;2023-09-19T06:49:31;69.73;;;39.57;;
1010;SDS011;494;48.744;10.106;2023-09-19T06:52:09;79.90;;;69.13;;
1010;SDS011;494;48.744;10.106;2023-09-19T06:54:38;106.10;;;95.90;;
1010;SDS011;494;48.744;10.106;2023-09-19T06:57:08;92.67;;;78.43;;
1010;SDS011;494;48.744;10.106;2023-09-19T06:59:40;89.13;;;79.93;;
1010;SDS011;494;48.744;10.106;2023-09-19T07:02:09;70.43;;;45.87;;
1010;SDS011;494;48.744;10.106;2023-09-19T07:04:42;72.00;;;48.50;;
1010;SDS011;494;48.744;10.106;2023-09-19T07:07:15;76.53;;;65.80;;
1010;SDS011;494;48.744;10.106;2023-09-19T07:09:49;76.90;;;65.50;;
1010;SDS011;494;48.744;10.106;2023-09-19T07:12:18;79.43;;;65.80;;
1010;SDS011;494;48.744;10.106;2023-09-19T07:14:51;77.83;;;68.17;;
1010;SDS011;494;48.744;10.106;2023-09-19T07:17:21;94.47;;;78.20;;
1010;SDS011;494;48.744;10.106;2023-09-19T07:19:51;203.17;;;188.33;;
1010;SDS011;494;48.744;10.106;2023-09-19T07:22:22;458.10;;;429.63;;
1010;SDS011;494;48.744;10.106;2023-09-19T07:24:52;542.73;;;508.97;;
1010;SDS011;494;48.744;10.106;2023-09-19T07:27:21;534.17;;;500.97;;
1010;SDS011;494;48.744;10.106;2023-09-19T07:29:51;550.40;;;516.00;;
1010;SDS011;494;48.744;10.106;2023-09-19T07:32:21;510.90;;;479.30;;
1010;SDS011;494;48.744;10.106;2023-09-19T07:34:52;522.87;;;489.97;;
1010;SDS011;494;48.744;10.106;2023-09-19T07:37:24;560.30;;;525.70;;
1010;SDS011;494;48.744;10.106;2023-09-19T07:40:00;486.23;;;455.87;;
1010;SDS011;494;48.744;10.106;2023-09-19T07:42:34;520.43;;;488.00;;
1010;SDS011;494;48.744;10.106;2023-09-19T07:45:06;633.80;;;592.90;;
1010;SDS011;494;48.744;10.106;2023-09-19T07:47:43;732.27;;;683.47;;
1010;SDS011;494;48.744;10.106;2023-09-19T07:50:13;655.30;;;612.23;;
1010;SDS011;494;48.744;10.106;2023-09-19T07:52:51;717.67;;;669.77;;
1010;SDS011;494;48.744;10.106;2023-09-19T07:55:23;690.03;;;644.73;;
1010;SDS011;494;48.744;10.106;2023-09-19T07:57:59;641.47;;;600.20;;
1010;SDS011;494;48.744;10.106;2023-09-19T08:00:32;601.90;;;563.97;;
1010;SDS011;494;48.744;10.106;2023-09-19T08:03:01;498.93;;;467.80;;
1010;SDS011;494;48.744;10.106;2023-09-19T08:05:42;436.13;;;409.30;;
1010;SDS011;494;48.744;10.106;2023-09-19T08:08:16;166.33;;;153.07;;
1010;SDS011;494;48.744;10.106;2023-09-19T08:10:45;77.20;;;50.43;;
1010;SDS011;494;48.744;10.106;2023-09-19T08:13:22;73.50;;;50.37;;
1010;SDS011;494;48.744;10.106;2023-09-19T08:15:52;85.47;;;72.60;;
1010;SDS011;494;48.744;10.106;2023-09-19T08:18:22;323.23;;;301.93;;
1010;SDS011;494;48.744;10.106;2023-09-19T08:20:55;673.77;;;629.77;;
1010;SDS011;494;48.744;10.106;2023-09-19T08:23:30;753.43;;;703.60;;
1010;SDS011;494;48.744;10.106;2023-09-19T08:26:02;772.07;;;719.40;;
1010;SDS011;494;48.744;10.106;2023-09-19T08:28:40;948.73;;;877.67;;
1010;SDS011;494;48.744;10.106;2023-09-19T08:31:22;1014.63;;;934.43;;
1010;SDS011;494;48.744;10.106;2023-09-19T08:33:53;1067.43;;;979.10;;
1010;SDS011;494;48.744;10.106;2023-09-19T08:36:22;1066.90;;;978.33;;
1010;SDS011;494;48.744;10.106;2023-09-19T08:38:53;1026.90;;;944.53;;
1010;SDS011;494;48.744;10.106;2023-09-19T08:41:23;1052.37;;;965.87;;
1010;SDS011;494;48.744;10.106;2023-09-19T08:43:52;1067.63;;;978.77;;
1010;SDS011;494;48.744;10.106;2023-09-19T08:46:21;1118.67;;;999.90;;
1010;SDS011;494;48.744;10.106;2023-09-19T08:49:01;1222.10;;;999.90;;
1010;SDS011;494;48.744;10.106;2023-09-19T08:51:34;1238.33;;;999.90;;
1010;SDS011;494;48.744;10.106;2023-09-19T08:54:18;1208.87;;;999.90;;
1010;SDS011;494;48.744;10.106;2023-09-19T08:56:54;1132.80;;;999.90;;
1010;SDS011;494;48.744;10.106;2023-09-19T08:59:31;658.73;;;609.43;;
1010;SDS011;494;48.744;10.106;2023-09-19T09:02:02;483.67;;;445.00;;
1010;SDS011;494;48.744;10.106;2023-09-19T09:04:32;943.10;;;860.60;;
1010;SDS011;494;48.744;10.106;2023-09-19T09:07:16;970.67;;;888.27;;
1010;SDS011;494;48.744;10.106;2023-09-19T09:09:50;1083.20;;;978.67;;
1010;SDS011;494;48.744;10.106;2023-09-19T09:12:20;1163.93;;;999.90;;
1010;SDS011;494;48.744;10.106;2023-09-19T09:14:51;1174.60;;;999.90;;
1010;SDS011;494;48.744;10.106;2023-09-19T09:17:22;1181.00;;;999.90;;
1010;SDS011;494;48.744;10.106;2023-09-19T09:19:52;1180.97;;;999.90;;
1010;SDS011;494;48.744;10.106;2023-09-19T09:22:26;1183.07;;;999.90;;
1010;SDS011;494;48.744;10.106;2023-09-19T09:24:58;1140.93;;;999.90;;
1010;SDS011;494;48.744;10.106;2023-09-19T09:27:31;1058.17;;;970.40;;
1010;SDS011;494;48.744;10.106;2023-09-19T09:30:06;978.97;;;904.67;;
1010;SDS011;494;48.744;10.106;2023-09-19T09:32:40;949.43;;;876.97;;
1010;SDS011;494;48.744;10.106;2023-09-19T09:35:30;1072.57;;;983.83;;
1010;SDS011;494;48.744;10.106;2023-09-19T09:38:00;1100.87;;;999.90;;
1010;SDS011;494;48.744;10.106;2023-09-19T09:40:49;1153.10;;;999.90;;
1010;SDS011;494;48.744;10.106;2023-09-19T09:43:27;1179.97;;;999.90;;
1010;SDS011;494;48.744;10.106;2023-09-19T09:46:06;1174.93;;;999.90;;
1010;SDS011;494;48.744;10.106;2023-09-19T09:49:00;1187.63;;;999.90;;
1010;SDS011;494;48.744;10.106;2023-09-19T09:51:43;1167.57;;;999.90;;
1010;SDS011;494;48.744;10.106;2023-09-19T09:54:24;1176.53;;;999.90;;
1010;SDS011;494;48.744;10.106;2023-09-19T09:57:03;1169.43;;;999.90;;
1010;SDS011;494;48.744;10.106;2023-09-19T09:59:46;1170.93;;;999.90;;
1010;SDS011;494;48.744;10.106;2023-09-19T10:02:20;1146.17;;;999.90;;
1010;SDS011;494;48.744;10.106;2023-09-19T10:05:10;1150.97;;;999.90;;
1010;SDS011;494;48.744;10.106;2023-09-19T10:07:49;1135.47;;;999.90;;
1010;SDS011;494;48.744;10.106;2023-09-19T10:10:31;1136.07;;;999.90;;
1010;SDS011;494;48.744;10.106;2023-09-19T10:13:22;1096.73;;;999.90;;
1010;SDS011;494;48.744;10.106;2023-09-19T10:16:00;1017.47;;;936.63;;
1010;SDS011;494;48.744;10.106;2023-09-19T10:18:42;1032.00;;;949.37;;
1010;SDS011;494;48.744;10.106;2023-09-19T10:21:28;1074.03;;;985.00;;
1010;SDS011;494;48.744;10.106;2023-09-19T10:23:59;1068.03;;;977.70;;
1010;SDS011;494;48.744;10.106;2023-09-19T10:26:35;1073.83;;;984.40;;
1010;SDS011;494;48.744;10.106;2023-09-19T10:29:08;995.17;;;918.33;;
1010;SDS011;494;48.744;10.106;2023-09-19T10:31:38;865.87;;;804.13;;
1010;SDS011;494;48.744;10.106;2023-09-19T10:34:15;710.73;;;662.80;;
1010;SDS011;494;48.744;10.106;2023-09-19T10:36:48;335.70;;;314.30;;
1010;SDS011;494;48.744;10.106;2023-09-19T10:39:26;223.60;;;207.60;;
1010;SDS011;494;48.744;10.106;2023-09-19T10:42:02;176.97;;;163.20;;
1010;SDS011;494;48.744;10.106;2023-09-19T10:44:38;319.10;;;298.87;;
1010;SDS011;494;48.744;10.106;2023-09-19T10:47:15;175.57;;;161.93;;
1010;SDS011;494;48.744;10.106;2023-09-19T10:49:46;76.13;;;54.37;;
1010;SDS011;494;48.744;10.106;2023-09-19T10:52:17;67.97;;;34.53;;
1010;SDS011;494;48.744;10.106;2023-09-19T10:54:54;98.67;;;88.20;;
1010;SDS011;494;48.744;10.106;2023-09-19T10:57:28;130.50;;;119.00;;
1010;SDS011;494;48.744;10.106;2023-09-19T11:00:02;142.60;;;130.77;;
1010;SDS011;494;48.744;10.106;2023-09-19T11:06:09;241.77;;;225.73;;
1010;SDS011;494;48.744;10.106;2023-09-19T11:08:55;292.17;;;273.33;;
1010;SDS011;494;48.744;10.106;2023-09-19T11:11:42;363.77;;;341.87;;
1010;SDS011;494;48.744;10.106;2023-09-19T11:14:28;395.53;;;371.23;;
1010;SDS011;494;48.744;10.106;2023-09-19T11:20:19;383.03;;;359.77;;
1010;SDS011;494;48.744;10.106;2023-09-19T11:23:22;263.03;;;245.73;;
1010;SDS011;494;48.744;10.106;2023-09-19T11:25:54;243.53;;;226.97;;
1010;SDS011;494;48.744;10.106;2023-09-19T11:28:31;269.43;;;252.17;;
1010;SDS011;494;48.744;10.106;2023-09-19T11:40:33;616.53;;;577.60;;
1010;SDS011;494;48.744;10.106;2023-09-19T11:46:06;755.37;;;705.63;;
1010;SDS011;494;48.744;10.106;2023-09-19T11:48:40;799.50;;;746.00;;
1010;SDS011;494;48.744;10.106;2023-09-19T11:51:14;798.67;;;745.77;;
1010;SDS011;494;48.744;10.106;2023-09-19T11:53:55;750.47;;;701.63;;
1010;SDS011;494;48.744;10.106;2023-09-19T11:56:30;712.07;;;665.90;;
1010;SDS011;494;48.744;10.106;2023-09-19T11:59:21;777.90;;;727.17;;
1010;SDS011;494;48.744;10.106;2023-09-19T12:02:27;801.07;;;747.47;;
1010;SDS011;494;48.744;10.106;2023-09-19T12:05:08;802.60;;;748.67;;
1010;SDS011;494;48.744;10.106;2023-09-19T12:10:34;871.93;;;811.50;;
1010;SDS011;494;48.744;10.106;2023-09-19T12:13:16;903.03;;;838.57;;
1010;SDS011;494;48.744;10.106;2023-09-19T12:15:47;913.50;;;848.83;;
1010;SDS011;494;48.744;10.106;2023-09-19T12:18:28;904.87;;;841.17;;
1010;SDS011;494;48.744;10.106;2023-09-19T12:21:02;926.27;;;859.77;;
1010;SDS011;494;48.744;10.106;2023-09-19T12:23:41;873.00;;;812.63;;
1010;SDS011;494;48.744;10.106;2023-09-19T12:26:12;875.77;;;815.53;;
1010;SDS011;494;48.744;10.106;2023-09-19T12:28:42;913.37;;;848.47;;
1010;SDS011;494;48.744;10.106;2023-09-19T12:31:15;906.83;;;842.83;;
1010;SDS011;494;48.744;10.106;2023-09-19T12:33:52;928.57;;;861.87;;
1010;SDS011;494;48.744;10.106;2023-09-19T12:36:23;944.50;;;875.23;;
1010;SDS011;494;48.744;10.106;2023-09-19T12:39:27;950.93;;;881.33;;
1010;SDS011;494;48.744;10.106;2023-09-19T12:42:02;921.70;;;855.70;;
1010;SDS011;494;48.744;10.106;2023-09-19T12:44:46;945.33;;;876.00;;
1010;SDS011;494;48.744;10.106;2023-09-19T12:47:31;934.83;;;866.77;;
1010;SDS011;494;48.744;10.106;2023-09-19T12:50:09;948.63;;;880.13;;
1010;SDS011;494;48.744;10.106;2023-09-19T12:52:59;927.70;;;860.23;;
1010;SDS011;494;48.744;10.106;2023-09-19T12:55:39;894.20;;;832.00;;
1010;SDS011;494;48.744;10.106;2023-09-19T12:58:11;876.07;;;814.80;;
1010;SDS011;494;48.744;10.106;2023-09-19T13:01:01;882.33;;;820.63;;
1010;SDS011;494;48.744;10.106;2023-09-19T13:04:15;941.67;;;873.57;;
1010;SDS011;494;48.744;10.106;2023-09-19T13:06:59;971.70;;;900.03;;
1010;SDS011;494;48.744;10.106;2023-09-19T13:09:29;966.10;;;893.70;;
1010;SDS011;494;48.744;10.106;2023-09-19T13:12:16;988.50;;;913.40;;
1010;SDS011;494;48.744;10.106;2023-09-19T13:15:13;982.40;;;907.80;;
1010;SDS011;494;48.744;10.106;2023-09-19T13:17:47;967.93;;;896.17;;
1010;SDS011;494;48.744;10.106;2023-09-19T13:20:21;979.23;;;905.70;;
1010;SDS011;494;48.744;10.106;2023-09-19T13:23:08;969.40;;;896.20;;
1010;SDS011;494;48.744;10.106;2023-09-19T13:26:08;1007.37;;;929.10;;
1010;SDS011;494;48.744;10.106;2023-09-19T13:28:42;988.97;;;913.20;;
1010;SDS011;494;48.744;10.106;2023-09-19T13:31:12;1000.27;;;922.53;;
1010;SDS011;494;48.744;10.106;2023-09-19T13:33:44;996.33;;;920.97;;
1010;SDS011;494;48.744;10.106;2023-09-19T13:36:19;983.43;;;909.63;;
1010;SDS011;494;48.744;10.106;2023-09-19T13:38:50;970.90;;;899.00;;
1010;SDS011;494;48.744;10.106;2023-09-19T13:41:20;959.63;;;888.63;;
1010;SDS011;494;48.744;10.106;2023-09-19T13:43:51;954.13;;;883.73;;
1010;SDS011;494;48.744;10.106;2023-09-19T13:46:20;989.70;;;914.87;;
1010;SDS011;494;48.744;10.106;2023-09-19T13:48:53;985.17;;;911.37;;
1010;SDS011;494;48.744;10.106;2023-09-19T13:51:23;963.93;;;893.10;;
1010;SDS011;494;48.744;10.106;2023-09-19T13:53:57;958.27;;;887.63;;
1010;SDS011;494;48.744;10.106;2023-09-19T13:56:33;963.00;;;890.60;;
1010;SDS011;494;48.744;10.106;2023-09-19T13:59:11;1007.47;;;929.67;;
1010;SDS011;494;48.744;10.106;2023-09-19T14:01:40;1001.53;;;924.03;;
1010;SDS011;494;48.744;10.106;2023-09-19T14:04:24;1027.53;;;946.53;;
1010;SDS011;494;48.744;10.106;2023-09-19T14:06:55;1017.93;;;937.73;;
1010;SDS011;494;48.744;10.106;2023-09-19T14:09:25;1040.33;;;957.03;;
1010;SDS011;494;48.744;10.106;2023-09-19T14:12:07;1028.97;;;947.00;;
1010;SDS011;494;48.744;10.106;2023-09-19T14:17:39;1000.83;;;924.27;;
1010;SDS011;494;48.744;10.106;2023-09-19T14:20:12;978.90;;;905.70;;
1010;SDS011;494;48.744;10.106;2023-09-19T14:22:44;942.43;;;874.00;;
1010;SDS011;494;48.744;10.106;2023-09-19T14:25:18;906.83;;;843.13;;
1010;SDS011;494;48.744;10.106;2023-09-19T14:28:01;871.07;;;811.47;;
1010;SDS011;494;48.744;10.106;2023-09-19T14:30:54;819.27;;;763.97;;
1010;SDS011;494;48.744;10.106;2023-09-19T14:33:38;769.27;;;718.37;;
1010;SDS011;494;48.744;10.106;2023-09-19T14:36:09;704.40;;;659.43;;
1010;SDS011;494;48.744;10.106;2023-09-19T14:38:44;756.37;;;707.20;;
1010;SDS011;494;48.744;10.106;2023-09-19T14:41:14;810.60;;;756.37;;
1010;SDS011;494;48.744;10.106;2023-09-19T14:43:45;869.73;;;809.23;;
1010;SDS011;494;48.744;10.106;2023-09-19T14:49:27;962.73;;;891.30;;
1010;SDS011;494;48.744;10.106;2023-09-19T14:51:57;983.10;;;908.07;;
1010;SDS011;494;48.744;10.106;2023-09-19T14:54:32;994.83;;;917.77;;
1010;SDS011;494;48.744;10.106;2023-09-19T14:57:18;1010.27;;;931.47;;
1010;SDS011;494;48.744;10.106;2023-09-19T14:59:51;1036.80;;;954.80;;
1010;SDS011;494;48.744;10.106;2023-09-19T15:02:25;1014.33;;;934.33;;
1010;SDS011;494;48.744;10.106;2023-09-19T15:05:09;1025.37;;;944.67;;
1010;SDS011;494;48.744;10.106;2023-09-19T15:07:41;1016.97;;;937.83;;
1010;SDS011;494;48.744;10.106;2023-09-19T15:10:17;990.07;;;913.70;;
1010;SDS011;494;48.744;10.106;2023-09-19T15:12:51;984.83;;;911.00;;
1010;SDS011;494;48.744;10.106;2023-09-19T15:15:21;968.10;;;895.90;;
1010;SDS011;494;48.744;10.106;2023-09-19T15:18:06;943.50;;;874.67;;
1010;SDS011;494;48.744;10.106;2023-09-19T15:20:36;918.23;;;853.03;;
1010;SDS011;494;48.744;10.106;2023-09-19T15:23:18;901.90;;;839.23;;
1010;SDS011;494;48.744;10.106;2023-09-19T15:25:58;837.03;;;779.77;;
1010;SDS011;494;48.744;10.106;2023-09-19T15:28:56;821.67;;;766.43;;
1010;SDS011;494;48.744;10.106;2023-09-19T15:31:32;831.80;;;776.17;;
1010;SDS011;494;48.744;10.106;2023-09-19T15:34:20;816.57;;;762.00;;
1010;SDS011;494;48.744;10.106;2023-09-19T15:36:50;834.43;;;778.17;;
1010;SDS011;494;48.744;10.106;2023-09-19T15:39:20;855.50;;;797.20;;
1010;SDS011;494;48.744;10.106;2023-09-19T15:41:49;878.63;;;817.43;;
1010;SDS011;494;48.744;10.106;2023-09-19T15:44:33;872.80;;;812.53;;
1010;SDS011;494;48.744;10.106;2023-09-19T15:47:06;887.10;;;825.63;;
1010;SDS011;494;48.744;10.106;2023-09-19T15:52:27;840.53;;;783.03;;
1010;SDS011;494;48.744;10.106;2023-09-19T15:55:03;845.63;;;788.27;;
1010;SDS011;494;48.744;10.106;2023-09-19T15:57:33;852.47;;;794.40;;
1010;SDS011;494;48.744;10.106;2023-09-19T16:00:08;856.83;;;798.23;;
1010;SDS011;494;48.744;10.106;2023-09-19T16:02:52;858.37;;;799.90;;
1010;SDS011;494;48.744;10.106;2023-09-19T16:05:56;840.50;;;783.43;;
1010;SDS011;494;48.744;10.106;2023-09-19T16:08:40;826.37;;;770.67;;
1010;SDS011;494;48.744;10.106;2023-09-19T16:11:25;768.80;;;718.17;;
1010;SDS011;494;48.744;10.106;2023-09-19T16:14:11;716.20;;;670.50;;
1010;SDS011;494;48.744;10.106;2023-09-19T16:17:26;680.03;;;638.13;;
1010;SDS011;494;48.744;10.106;2023-09-19T16:20:12;608.33;;;571.43;;
1010;SDS011;494;48.744;10.106;2023-09-19T16:26:17;476.97;;;448.17;;
1010;SDS011;494;48.744;10.106;2023-09-19T16:29:01;415.87;;;390.90;;
1010;SDS011;494;48.744;10.106;2023-09-19T16:31:46;311.80;;;291.97;;
1010;SDS011;494;48.744;10.106;2023-09-19T16:34:16;237.43;;;221.63;;
1010;SDS011;494;48.744;10.106;2023-09-19T16:36:48;182.47;;;168.83;;
1010;SDS011;494;48.744;10.106;2023-09-19T16:42:40;95.00;;;85.20;;
1010;SDS011;494;48.744;10.106;2023-09-19T16:45:24;84.60;;;75.50;;
1010;SDS011;494;48.744;10.106;2023-09-19T16:48:08;81.67;;;64.53;;
1010;SDS011;494;48.744;10.106;2023-09-19T16:50:49;89.57;;;76.57;;
1010;SDS011;494;48.744;10.106;2023-09-19T16:53:40;87.60;;;75.23;;
1010;SDS011;494;48.744;10.106;2023-09-19T16:56:29;134.73;;;122.73;;
1010;SDS011;494;48.744;10.106;2023-09-19T16:59:12;287.63;;;268.03;;
1010;SDS011;494;48.744;10.106;2023-09-19T17:01:58;562.20;;;526.27;;
1010;SDS011;494;48.744;10.106;2023-09-19T17:04:36;660.53;;;617.37;;
1010;SDS011;494;48.744;10.106;2023-09-19T17:07:05;738.23;;;687.60;;
1010;SDS011;494;48.744;10.106;2023-09-19T17:10:00;868.53;;;806.30;;
1010;SDS011;494;48.744;10.106;2023-09-19T17:15:24;987.80;;;911.93;;
1010;SDS011;494;48.744;10.106;2023-09-19T17:17:53;1020.63;;;939.03;;
1010;SDS011;494;48.744;10.106;2023-09-19T17:20:28;1087.80;;;996.50;;
1010;SDS011;494;48.744;10.106;2023-09-19T17:27:37;1158.43;;;999.90;;
1010;SDS011;494;48.744;10.106;2023-09-19T17:30:17;1170.03;;;999.90;;
1010;SDS011;494;48.744;10.106;2023-09-19T17:32:48;1178.30;;;999.90;;
1010;SDS011;494;48.744;10.106;2023-09-19T17:35:20;1178.37;;;999.90;;
1010;SDS011;494;48.744;10.106;2023-09-19T17:38:03;1163.57;;;999.90;;
1010;SDS011;494;48.744;10.106;2023-09-19T17:41:03;1166.97;;;999.90;;
1010;SDS011;494;48.744;10.106;2023-09-19T17:44:17;1156.70;;;999.90;;
1010;SDS011;494;48.744;10.106;2023-09-19T17:51:05;1130.93;;;999.90;;
1010;SDS011;494;48.744;10.106;2023-09-19T17:53:52;1096.27;;;994.57;;
1010;SDS011;494;48.744;10.106;2023-09-19T17:56:50;1035.57;;;945.17;;
1010;SDS011;494;48.744;10.106;2023-09-19T17:59:27;979.93;;;896.93;;
1010;SDS011;494;48.744;10.106;2023-09-19T18:02:19;904.67;;;832.07;;
1010;SDS011;494;48.744;10.106;2023-09-19T18:04:53;894.93;;;825.80;;
1010;SDS011;494;48.744;10.106;2023-09-19T18:17:58;308.70;;;284.10;;
1010;SDS011;494;48.744;10.106;2023-09-19T18:20:32;267.17;;;244.63;;
1010;SDS011;494;48.744;10.106;2023-09-19T18:23:19;283.80;;;260.17;;
1010;SDS011;494;48.744;10.106;2023-09-19T18:26:12;244.73;;;223.50;;
1010;SDS011;494;48.744;10.106;2023-09-19T18:28:45;372.97;;;343.93;;
1010;SDS011;494;48.744;10.106;2023-09-19T18:31:26;504.10;;;467.43;;
1010;SDS011;494;48.744;10.106;2023-09-19T18:34:23;490.50;;;454.80;;
1010;SDS011;494;48.744;10.106;2023-09-19T18:43:17;411.70;;;381.00;;
1010;SDS011;494;48.744;10.106;2023-09-19T18:45:55;297.23;;;273.10;;
1010;SDS011;494;48.744;10.106;2023-09-19T18:48:30;267.40;;;245.13;;
1010;SDS011;494;48.744;10.106;2023-09-19T18:51:04;170.93;;;154.20;;
1010;SDS011;494;48.744;10.106;2023-09-19T18:53:36;170.00;;;153.50;;
1010;SDS011;494;48.744;10.106;2023-09-19T18:56:37;156.30;;;140.67;;
1010;SDS011;494;48.744;10.106;2023-09-19T18:59:10;238.00;;;217.63;;
1010;SDS011;494;48.744;10.106;2023-09-19T19:01:41;181.33;;;164.17;;
1010;SDS011;494;48.744;10.106;2023-09-19T19:04:19;169.37;;;152.87;;
1010;SDS011;494;48.744;10.106;2023-09-19T19:06:50;171.63;;;155.07;;
1010;SDS011;494;48.744;10.106;2023-09-19T19:09:22;206.53;;;188.13;;
1010;SDS011;494;48.744;10.106;2023-09-19T19:11:50;227.33;;;207.30;;
1010;SDS011;494;48.744;10.106;2023-09-19T19:14:20;246.53;;;225.80;;
1010;SDS011;494;48.744;10.106;2023-09-19T19:16:49;466.77;;;432.00;;
1010;SDS011;494;48.744;10.106;2023-09-19T19:19:24;510.33;;;473.30;;
1010;SDS011;494;48.744;10.106;2023-09-19T19:22:00;642.77;;;596.50;;
1010;SDS011;494;48.744;10.106;2023-09-19T19:24:30;678.43;;;629.63;;
1010;SDS011;494;48.744;10.106;2023-09-19T19:27:00;683.37;;;633.90;;
1010;SDS011;494;48.744;10.106;2023-09-19T19:29:33;642.73;;;596.10;;
1010;SDS011;494;48.744;10.106;2023-09-19T19:32:22;801.70;;;743.47;;
1010;SDS011;494;48.744;10.106;2023-09-19T19:35:06;805.30;;;747.17;;
1010;SDS011;494;48.744;10.106;2023-09-19T19:37:43;775.00;;;718.90;;